WIDGT57 EGXW-EGXW
Flight info
| Callsign | WIDGT57 |
|---|---|
| Flight time | 1h 15m |
| Altitude | 25000 |
| Route | OTR DCT LEE DCT GAM DCT WAD |
| Aircraft | B350/L-SBGRW/S |
Departure
| Time | 2026-05-06 15:33 |
|---|---|
| Airport | RAF Waddington (EGXW) |
Arrival
| Time | 2026-05-06 16:49 |
|---|---|
| Airport | RAF Waddington (EGXW) |
| Time | Latitude | Longitude | Altitude | Speed | Heading |
|---|---|---|---|---|---|
| 2026-05-06 15:22 | 53.17929 | -0.52227 | 235 ft | 0 kts | 174° |
| 2026-05-06 15:27 | 53.17927 | -0.52227 | 235 ft | 1 kts | 173° |
| 2026-05-06 15:27 | 53.17895 | -0.52215 | 234 ft | 8 kts | 147° |
| 2026-05-06 15:27 | 53.17877 | -0.52132 | 232 ft | 12 kts | 122° |
| 2026-05-06 15:28 | 53.17810 | -0.52020 | 230 ft | 16 kts | 146° |
| 2026-05-06 15:28 | 53.17706 | -0.52048 | 225 ft | 10 kts | 205° |
| 2026-05-06 15:28 | 53.17644 | -0.52117 | 224 ft | 15 kts | 219° |
| 2026-05-06 15:28 | 53.17576 | -0.52200 | 224 ft | 5 kts | 214° |
| 2026-05-06 15:29 | 53.17534 | -0.52249 | 223 ft | 11 kts | 217° |
| 2026-05-06 15:29 | 53.17445 | -0.52352 | 224 ft | 14 kts | 217° |
| 2026-05-06 15:29 | 53.17360 | -0.52460 | 227 ft | 17 kts | 218° |
| 2026-05-06 15:29 | 53.17267 | -0.52576 | 232 ft | 17 kts | 214° |
| 2026-05-06 15:30 | 53.17157 | -0.52700 | 235 ft | 21 kts | 216° |
| 2026-05-06 15:30 | 53.17030 | -0.52848 | 238 ft | 24 kts | 213° |
| 2026-05-06 15:30 | 53.16883 | -0.52910 | 237 ft | 20 kts | 178° |
| 2026-05-06 15:30 | 53.16756 | -0.52879 | 233 ft | 17 kts | 172° |
| 2026-05-06 15:31 | 53.16647 | -0.52854 | 230 ft | 15 kts | 172° |
| 2026-05-06 15:31 | 53.16549 | -0.52831 | 230 ft | 13 kts | 171° |
| 2026-05-06 15:31 | 53.16398 | -0.52789 | 228 ft | 22 kts | 171° |
| 2026-05-06 15:32 | 53.16260 | -0.52632 | 226 ft | 6 kts | 57° |
| 2026-05-06 15:32 | 53.16286 | -0.52604 | 226 ft | 0 kts | 19° |
| 2026-05-06 15:32 | 53.16567 | -0.52416 | 224 ft | 95 kts | 22° |
| 2026-05-06 15:32 | 53.17392 | -0.51876 | 501 ft | 151 kts | 19° |
| 2026-05-06 15:33 | 53.18514 | -0.51185 | 814 ft | 189 kts | 18° |
| 2026-05-06 15:33 | 53.19863 | -0.50456 | 1052 ft | 214 kts | 16° |
| 2026-05-06 15:33 | 53.21303 | -0.49672 | 1324 ft | 227 kts | 17° |
| 2026-05-06 15:33 | 53.22820 | -0.48802 | 1608 ft | 234 kts | 18° |
| 2026-05-06 15:34 | 53.24376 | -0.47875 | 1883 ft | 239 kts | 19° |
| 2026-05-06 15:34 | 53.25951 | -0.46904 | 2158 ft | 242 kts | 19° |
| 2026-05-06 15:34 | 53.27528 | -0.45893 | 2436 ft | 244 kts | 20° |
| 2026-05-06 15:34 | 53.29111 | -0.44837 | 2717 ft | 245 kts | 21° |
| 2026-05-06 15:35 | 53.30691 | -0.43737 | 2997 ft | 246 kts | 22° |
| 2026-05-06 15:35 | 53.32263 | -0.42593 | 3303 ft | 246 kts | 22° |
| 2026-05-06 15:35 | 53.33820 | -0.41409 | 3626 ft | 245 kts | 24° |
| 2026-05-06 15:35 | 53.35349 | -0.40192 | 4043 ft | 242 kts | 25° |
| 2026-05-06 15:36 | 53.36827 | -0.38959 | 4463 ft | 240 kts | 26° |
| 2026-05-06 15:36 | 53.38302 | -0.37674 | 4886 ft | 239 kts | 27° |
| 2026-05-06 15:36 | 53.39759 | -0.36352 | 5306 ft | 238 kts | 28° |
| 2026-05-06 15:36 | 53.41208 | -0.34985 | 5732 ft | 239 kts | 28° |
| 2026-05-06 15:37 | 53.42643 | -0.33579 | 6156 ft | 239 kts | 30° |
| 2026-05-06 15:37 | 53.44066 | -0.32134 | 6580 ft | 239 kts | 30° |
| 2026-05-06 15:37 | 53.45478 | -0.30649 | 6996 ft | 240 kts | 31° |
| 2026-05-06 15:37 | 53.46881 | -0.29122 | 7425 ft | 240 kts | 32° |
| 2026-05-06 15:38 | 53.48274 | -0.27553 | 7842 ft | 241 kts | 33° |
| 2026-05-06 15:38 | 53.49655 | -0.25944 | 8274 ft | 242 kts | 34° |
| 2026-05-06 15:38 | 53.51023 | -0.24297 | 8695 ft | 242 kts | 35° |
| 2026-05-06 15:38 | 53.52381 | -0.22610 | 9120 ft | 243 kts | 36° |
| 2026-05-06 15:39 | 53.53726 | -0.20885 | 9540 ft | 244 kts | 37° |
| 2026-05-06 15:39 | 53.55058 | -0.19122 | 9961 ft | 244 kts | 38° |
| 2026-05-06 15:39 | 53.56381 | -0.17316 | 10359 ft | 246 kts | 38° |
| 2026-05-06 15:39 | 53.57709 | -0.15452 | 10674 ft | 250 kts | 39° |
| 2026-05-06 15:40 | 53.58589 | -0.14186 | 10897 ft | 252 kts | 40° |
| 2026-05-06 15:41 | 53.63129 | -0.07259 | 12020 ft | 258 kts | 43° |
| 2026-05-06 15:42 | 53.64420 | -0.05157 | 12345 ft | 259 kts | 43° |
| 2026-05-06 15:42 | 53.65864 | -0.03400 | 12684 ft | 257 kts | 17° |
| 2026-05-06 15:42 | 53.67596 | -0.03353 | 12928 ft | 257 kts | 340° |
| 2026-05-06 15:42 | 53.69063 | -0.05069 | 13056 ft | 262 kts | 310° |
| 2026-05-06 15:43 | 53.70067 | -0.07667 | 13097 ft | 268 kts | 296° |
| 2026-05-06 15:43 | 53.70889 | -0.10545 | 13104 ft | 274 kts | 295° |
| 2026-05-06 15:43 | 53.71684 | -0.13496 | 13111 ft | 277 kts | 293° |
| 2026-05-06 15:43 | 53.72440 | -0.16514 | 13066 ft | 281 kts | 291° |
| 2026-05-06 15:44 | 53.73144 | -0.19492 | 12791 ft | 264 kts | 291° |
| 2026-05-06 15:44 | 53.73775 | -0.22291 | 12517 ft | 253 kts | 289° |
| 2026-05-06 15:44 | 53.74348 | -0.25058 | 12236 ft | 246 kts | 288° |
| 2026-05-06 15:44 | 53.74857 | -0.27783 | 11958 ft | 241 kts | 286° |
| 2026-05-06 15:45 | 53.75304 | -0.30483 | 11675 ft | 237 kts | 284° |
| 2026-05-06 15:45 | 53.75726 | -0.33151 | 11397 ft | 234 kts | 292° |
| 2026-05-06 15:45 | 53.76685 | -0.35348 | 11130 ft | 233 kts | 315° |
| 2026-05-06 15:45 | 53.77817 | -0.37290 | 10850 ft | 231 kts | 310° |
| 2026-05-06 15:46 | 53.78822 | -0.39407 | 10570 ft | 230 kts | 306° |
| 2026-05-06 15:46 | 53.79770 | -0.41583 | 10290 ft | 229 kts | 306° |
| 2026-05-06 15:46 | 53.80730 | -0.43731 | 10021 ft | 228 kts | 307° |
| 2026-05-06 15:46 | 53.81696 | -0.45861 | 9737 ft | 228 kts | 307° |
| 2026-05-06 15:47 | 53.82656 | -0.47986 | 9461 ft | 227 kts | 306° |
| 2026-05-06 15:47 | 53.83612 | -0.50110 | 9184 ft | 226 kts | 306° |
| 2026-05-06 15:47 | 53.84564 | -0.52223 | 8909 ft | 226 kts | 306° |
| 2026-05-06 15:47 | 53.85514 | -0.54335 | 8636 ft | 225 kts | 306° |
| 2026-05-06 15:48 | 53.86336 | -0.56546 | 8363 ft | 224 kts | 297° |
| 2026-05-06 15:48 | 53.86968 | -0.58942 | 8089 ft | 222 kts | 291° |
| 2026-05-06 15:48 | 53.87790 | -0.61140 | 7930 ft | 222 kts | 310° |
| 2026-05-06 15:48 | 53.88860 | -0.63196 | 7886 ft | 242 kts | 310° |
| 2026-05-06 15:49 | 53.89973 | -0.65478 | 7846 ft | 256 kts | 307° |
| 2026-05-06 15:49 | 53.91058 | -0.67944 | 7810 ft | 265 kts | 306° |
| 2026-05-06 15:49 | 53.92173 | -0.70472 | 7772 ft | 270 kts | 307° |
| 2026-05-06 15:49 | 53.93308 | -0.72978 | 7733 ft | 272 kts | 307° |
| 2026-05-06 15:50 | 53.94463 | -0.75540 | 7692 ft | 274 kts | 306° |
| 2026-05-06 15:50 | 53.95613 | -0.78125 | 7649 ft | 274 kts | 306° |
| 2026-05-06 15:50 | 53.96776 | -0.80704 | 7484 ft | 268 kts | 307° |
| 2026-05-06 15:50 | 53.97866 | -0.83090 | 7308 ft | 246 kts | 306° |
| 2026-05-06 15:51 | 53.98858 | -0.85346 | 7126 ft | 231 kts | 306° |
| 2026-05-06 15:51 | 53.99801 | -0.87497 | 6943 ft | 222 kts | 306° |
| 2026-05-06 15:51 | 54.00719 | -0.89562 | 6779 ft | 215 kts | 306° |
| 2026-05-06 15:51 | 54.01610 | -0.91562 | 6647 ft | 210 kts | 306° |
| 2026-05-06 15:52 | 54.02482 | -0.93525 | 6509 ft | 206 kts | 306° |
| 2026-05-06 15:52 | 54.03340 | -0.95455 | 6374 ft | 203 kts | 306° |
| 2026-05-06 15:52 | 54.04188 | -0.97369 | 6247 ft | 205 kts | 306° |
| 2026-05-06 15:52 | 54.05070 | -0.99370 | 6119 ft | 216 kts | 306° |
| 2026-05-06 15:53 | 54.05993 | -1.01450 | 5996 ft | 223 kts | 306° |
| 2026-05-06 15:53 | 54.06941 | -1.03584 | 5875 ft | 227 kts | 306° |
| 2026-05-06 15:53 | 54.07897 | -1.05745 | 5753 ft | 229 kts | 306° |
| 2026-05-06 15:53 | 54.08850 | -1.07894 | 5634 ft | 230 kts | 306° |
| 2026-05-06 15:54 | 54.09787 | -1.10006 | 5509 ft | 218 kts | 306° |
| 2026-05-06 15:54 | 54.10684 | -1.12040 | 5379 ft | 212 kts | 306° |
| 2026-05-06 15:54 | 54.11560 | -1.14035 | 5251 ft | 208 kts | 306° |
| 2026-05-06 15:54 | 54.12421 | -1.15990 | 5122 ft | 205 kts | 306° |
| 2026-05-06 15:55 | 54.13273 | -1.17924 | 4990 ft | 203 kts | 306° |
| 2026-05-06 15:55 | 54.14119 | -1.19848 | 4862 ft | 202 kts | 306° |
| 2026-05-06 15:55 | 54.14960 | -1.21758 | 4734 ft | 201 kts | 306° |
| 2026-05-06 15:55 | 54.15784 | -1.23639 | 4607 ft | 200 kts | 306° |
| 2026-05-06 15:56 | 54.16743 | -1.25344 | 4479 ft | 200 kts | 320° |
| 2026-05-06 15:56 | 54.17853 | -1.26793 | 4325 ft | 201 kts | 321° |
| 2026-05-06 15:56 | 54.18978 | -1.28230 | 4117 ft | 204 kts | 322° |
| 2026-05-06 15:56 | 54.20139 | -1.29655 | 3870 ft | 207 kts | 324° |
| 2026-05-06 15:57 | 54.21344 | -1.31043 | 3566 ft | 218 kts | 324° |
| 2026-05-06 15:57 | 54.22673 | -1.32582 | 3147 ft | 231 kts | 325° |
| 2026-05-06 15:57 | 54.23993 | -1.34073 | 2687 ft | 223 kts | 325° |
| 2026-05-06 15:57 | 54.25242 | -1.35485 | 2490 ft | 207 kts | 325° |
| 2026-05-06 15:58 | 54.26393 | -1.36789 | 2444 ft | 190 kts | 325° |
| 2026-05-06 15:58 | 54.27439 | -1.37968 | 2431 ft | 171 kts | 325° |
| 2026-05-06 15:58 | 54.28388 | -1.39038 | 2431 ft | 156 kts | 325° |
| 2026-05-06 15:58 | 54.29277 | -1.40035 | 2380 ft | 154 kts | 325° |
| 2026-05-06 15:59 | 54.30212 | -1.41103 | 2222 ft | 172 kts | 324° |
| 2026-05-06 15:59 | 54.31243 | -1.42276 | 2075 ft | 183 kts | 325° |
| 2026-05-06 15:59 | 54.32318 | -1.43497 | 1997 ft | 185 kts | 325° |
| 2026-05-06 15:59 | 54.33396 | -1.44728 | 1976 ft | 188 kts | 325° |
| 2026-05-06 16:00 | 54.34491 | -1.45975 | 1964 ft | 190 kts | 325° |
| 2026-05-06 16:00 | 54.35601 | -1.47242 | 1948 ft | 192 kts | 325° |
| 2026-05-06 16:00 | 54.36707 | -1.48508 | 1949 ft | 189 kts | 325° |
| 2026-05-06 16:00 | 54.37776 | -1.49723 | 1946 ft | 180 kts | 325° |
| 2026-05-06 16:01 | 54.38800 | -1.50883 | 1942 ft | 172 kts | 325° |
| 2026-05-06 16:01 | 54.39784 | -1.51995 | 1948 ft | 165 kts | 325° |
| 2026-05-06 16:01 | 54.40733 | -1.53057 | 1950 ft | 160 kts | 325° |
| 2026-05-06 16:01 | 54.41674 | -1.54032 | 1945 ft | 157 kts | 336° |
| 2026-05-06 16:02 | 54.42815 | -1.54038 | 1538 ft | 180 kts | 16° |
| 2026-05-06 16:02 | 54.43937 | -1.52960 | 1101 ft | 191 kts | 38° |
| 2026-05-06 16:02 | 54.44917 | -1.51662 | 1360 ft | 160 kts | 32° |
| 2026-05-06 16:02 | 54.45908 | -1.50805 | 1131 ft | 161 kts | 20° |
| 2026-05-06 16:03 | 54.46935 | -1.49998 | 936 ft | 165 kts | 29° |
| 2026-05-06 16:03 | 54.47834 | -1.48705 | 700 ft | 171 kts | 45° |
| 2026-05-06 16:03 | 54.48655 | -1.47207 | 534 ft | 172 kts | 46° |
| 2026-05-06 16:03 | 54.49393 | -1.45821 | 389 ft | 151 kts | 46° |
| 2026-05-06 16:04 | 54.50066 | -1.44548 | 207 ft | 138 kts | 46° |
| 2026-05-06 16:04 | 54.50681 | -1.43386 | 125 ft | 121 kts | 47° |
| 2026-05-06 16:04 | 54.51280 | -1.42242 | 209 ft | 149 kts | 47° |
| 2026-05-06 16:04 | 54.52094 | -1.40758 | 477 ft | 185 kts | 45° |
| 2026-05-06 16:05 | 54.52855 | -1.38976 | 847 ft | 191 kts | 74° |
| 2026-05-06 16:05 | 54.52641 | -1.36729 | 950 ft | 199 kts | 132° |
| 2026-05-06 16:05 | 54.51424 | -1.36086 | 1113 ft | 184 kts | 195° |
| 2026-05-06 16:05 | 54.50371 | -1.37242 | 1172 ft | 183 kts | 225° |
| 2026-05-06 16:06 | 54.49470 | -1.38778 | 1220 ft | 183 kts | 225° |
| 2026-05-06 16:06 | 54.48527 | -1.40301 | 1172 ft | 188 kts | 224° |
| 2026-05-06 16:06 | 54.47550 | -1.41815 | 1192 ft | 183 kts | 222° |
| 2026-05-06 16:06 | 54.46692 | -1.43099 | 1306 ft | 148 kts | 225° |
| 2026-05-06 16:07 | 54.46194 | -1.44558 | 1149 ft | 145 kts | 259° |
| 2026-05-06 16:07 | 54.46414 | -1.46161 | 1032 ft | 138 kts | 300° |
| 2026-05-06 16:07 | 54.46952 | -1.47511 | 897 ft | 136 kts | 304° |
| 2026-05-06 16:07 | 54.47690 | -1.48345 | 940 ft | 127 kts | 359° |
| 2026-05-06 16:08 | 54.48493 | -1.47459 | 664 ft | 155 kts | 47° |
| 2026-05-06 16:08 | 54.49222 | -1.46114 | 465 ft | 148 kts | 45° |
| 2026-05-06 16:08 | 54.49911 | -1.44827 | 256 ft | 145 kts | 46° |
| 2026-05-06 16:08 | 54.50561 | -1.43613 | 126 ft | 128 kts | 47° |
| 2026-05-06 16:09 | 54.51159 | -1.42511 | 304 ft | 132 kts | 45° |
| 2026-05-06 16:09 | 54.51929 | -1.41100 | 436 ft | 187 kts | 46° |
| 2026-05-06 16:09 | 54.52815 | -1.39431 | 867 ft | 185 kts | 58° |
| 2026-05-06 16:09 | 54.52960 | -1.37220 | 1013 ft | 202 kts | 108° |
| 2026-05-06 16:10 | 54.51961 | -1.35625 | 1081 ft | 207 kts | 177° |
| 2026-05-06 16:10 | 54.50698 | -1.36719 | 964 ft | 219 kts | 226° |
| 2026-05-06 16:10 | 54.49641 | -1.38638 | 841 ft | 219 kts | 227° |
| 2026-05-06 16:10 | 54.48638 | -1.40429 | 962 ft | 199 kts | 226° |
| 2026-05-06 16:11 | 54.47675 | -1.42031 | 1046 ft | 190 kts | 224° |
| 2026-05-06 16:11 | 54.46692 | -1.43572 | 958 ft | 187 kts | 223° |
| 2026-05-06 16:11 | 54.45806 | -1.45102 | 998 ft | 173 kts | 239° |
| 2026-05-06 16:11 | 54.45603 | -1.47013 | 962 ft | 166 kts | 283° |
| 2026-05-06 16:12 | 54.46283 | -1.48585 | 721 ft | 171 kts | 330° |
| 2026-05-06 16:12 | 54.47417 | -1.48719 | 599 ft | 167 kts | 18° |
| 2026-05-06 16:12 | 54.48355 | -1.47672 | 576 ft | 145 kts | 38° |
| 2026-05-06 16:12 | 54.49024 | -1.46473 | 456 ft | 134 kts | 45° |
| 2026-05-06 16:13 | 54.49654 | -1.45313 | 298 ft | 132 kts | 45° |
| 2026-05-06 16:13 | 54.50253 | -1.44184 | 146 ft | 125 kts | 46° |
| 2026-05-06 16:13 | 54.50821 | -1.43144 | 125 ft | 111 kts | 46° |
| 2026-05-06 16:13 | 54.51455 | -1.41964 | 239 ft | 158 kts | 44° |
| 2026-05-06 16:14 | 54.52319 | -1.40532 | 699 ft | 186 kts | 45° |
| 2026-05-06 16:14 | 54.53163 | -1.38663 | 1037 ft | 210 kts | 69° |
| 2026-05-06 16:14 | 54.53013 | -1.36109 | 1175 ft | 231 kts | 126° |
| 2026-05-06 16:14 | 54.51507 | -1.35121 | 1080 ft | 246 kts | 184° |
| 2026-05-06 16:15 | 54.49849 | -1.35654 | 1092 ft | 240 kts | 193° |
| 2026-05-06 16:15 | 54.48229 | -1.36238 | 1200 ft | 242 kts | 193° |
| 2026-05-06 16:15 | 54.46575 | -1.36862 | 1280 ft | 244 kts | 193° |
| 2026-05-06 16:15 | 54.44917 | -1.37514 | 1374 ft | 245 kts | 195° |
| 2026-05-06 16:16 | 54.43241 | -1.38212 | 1276 ft | 251 kts | 194° |
| 2026-05-06 16:16 | 54.41534 | -1.38910 | 1078 ft | 251 kts | 194° |
| 2026-05-06 16:16 | 54.39853 | -1.39560 | 1040 ft | 239 kts | 192° |
| 2026-05-06 16:16 | 54.38253 | -1.40083 | 1133 ft | 231 kts | 191° |
| 2026-05-06 16:17 | 54.36663 | -1.40587 | 1088 ft | 230 kts | 192° |
| 2026-05-06 16:17 | 54.35089 | -1.41087 | 1100 ft | 230 kts | 191° |
| 2026-05-06 16:17 | 54.33567 | -1.41548 | 1027 ft | 213 kts | 192° |
| 2026-05-06 16:17 | 54.32141 | -1.42020 | 954 ft | 205 kts | 192° |
| 2026-05-06 16:18 | 54.30791 | -1.42463 | 967 ft | 197 kts | 192° |
| 2026-05-06 16:18 | 54.29393 | -1.42869 | 698 ft | 208 kts | 189° |
| 2026-05-06 16:18 | 54.28040 | -1.43176 | 931 ft | 188 kts | 188° |
| 2026-05-06 16:18 | 54.26745 | -1.43426 | 849 ft | 186 kts | 187° |
| 2026-05-06 16:19 | 54.25626 | -1.44275 | 911 ft | 174 kts | 226° |
| 2026-05-06 16:19 | 54.25080 | -1.46021 | 956 ft | 168 kts | 259° |
| 2026-05-06 16:19 | 54.25063 | -1.48007 | 996 ft | 167 kts | 277° |
| 2026-05-06 16:19 | 54.25408 | -1.49796 | 800 ft | 147 kts | 300° |
| 2026-05-06 16:20 | 54.26050 | -1.51029 | 638 ft | 132 kts | 325° |
| 2026-05-06 16:20 | 54.26871 | -1.51697 | 436 ft | 127 kts | 336° |
| 2026-05-06 16:20 | 54.27663 | -1.52311 | 321 ft | 121 kts | 333° |
| 2026-05-06 16:20 | 54.28425 | -1.52899 | 145 ft | 120 kts | 335° |
| 2026-05-06 16:21 | 54.29167 | -1.53474 | 132 ft | 123 kts | 336° |
| 2026-05-06 16:21 | 54.30069 | -1.54177 | 260 ft | 149 kts | 334° |
| 2026-05-06 16:21 | 54.31025 | -1.54931 | 383 ft | 151 kts | 335° |
| 2026-05-06 16:21 | 54.31993 | -1.54635 | 540 ft | 159 kts | 55° |
| 2026-05-06 16:22 | 54.31902 | -1.52870 | 680 ft | 161 kts | 136° |
| 2026-05-06 16:22 | 54.30877 | -1.51945 | 615 ft | 174 kts | 157° |
| 2026-05-06 16:22 | 54.29777 | -1.51025 | 714 ft | 174 kts | 154° |
| 2026-05-06 16:22 | 54.28728 | -1.50127 | 632 ft | 168 kts | 155° |
| 2026-05-06 16:23 | 54.27685 | -1.49249 | 472 ft | 164 kts | 154° |
| 2026-05-06 16:23 | 54.26718 | -1.49346 | 658 ft | 141 kts | 230° |
| 2026-05-06 16:23 | 54.26612 | -1.50950 | 586 ft | 147 kts | 297° |
| 2026-05-06 16:23 | 54.27404 | -1.52075 | 352 ft | 141 kts | 331° |
| 2026-05-06 16:24 | 54.28231 | -1.52744 | 169 ft | 124 kts | 335° |
| 2026-05-06 16:24 | 54.28964 | -1.53315 | 118 ft | 111 kts | 334° |
| 2026-05-06 16:24 | 54.29816 | -1.53941 | 277 ft | 156 kts | 333° |
| 2026-05-06 16:24 | 54.30866 | -1.54808 | 921 ft | 169 kts | 332° |
| 2026-05-06 16:25 | 54.31962 | -1.55397 | 1871 ft | 167 kts | 7° |
| 2026-05-06 16:25 | 54.32781 | -1.53954 | 2310 ft | 199 kts | 83° |
| 2026-05-06 16:25 | 54.32254 | -1.51743 | 2730 ft | 211 kts | 140° |
| 2026-05-06 16:25 | 54.31435 | -1.50898 | 3268 ft | 204 kts | 160° |
| 2026-05-06 16:26 | 54.30062 | -1.50114 | 3793 ft | 216 kts | 161° |
| 2026-05-06 16:26 | 54.28612 | -1.49224 | 4201 ft | 225 kts | 163° |
| 2026-05-06 16:26 | 54.27091 | -1.48423 | 4607 ft | 231 kts | 164° |
| 2026-05-06 16:26 | 54.25535 | -1.47603 | 5015 ft | 235 kts | 163° |
| 2026-05-06 16:27 | 54.23974 | -1.46737 | 5419 ft | 237 kts | 163° |
| 2026-05-06 16:27 | 54.22396 | -1.45857 | 5830 ft | 239 kts | 163° |
| 2026-05-06 16:27 | 54.20812 | -1.44977 | 6239 ft | 240 kts | 163° |
| 2026-05-06 16:27 | 54.19237 | -1.44102 | 6633 ft | 241 kts | 163° |
| 2026-05-06 16:28 | 54.17638 | -1.43217 | 7036 ft | 242 kts | 163° |
| 2026-05-06 16:28 | 54.16035 | -1.42329 | 7440 ft | 243 kts | 163° |
| 2026-05-06 16:28 | 54.14424 | -1.41436 | 7841 ft | 244 kts | 163° |
| 2026-05-06 16:28 | 54.12808 | -1.40543 | 8242 ft | 244 kts | 163° |
| 2026-05-06 16:29 | 54.11186 | -1.39647 | 8643 ft | 245 kts | 163° |
| 2026-05-06 16:29 | 54.09557 | -1.38749 | 9044 ft | 246 kts | 164° |
| 2026-05-06 16:29 | 54.07868 | -1.38362 | 9446 ft | 245 kts | 171° |
| 2026-05-06 16:29 | 54.06188 | -1.37823 | 9850 ft | 246 kts | 167° |
| 2026-05-06 16:30 | 54.04570 | -1.36869 | 10253 ft | 247 kts | 158° |
| 2026-05-06 16:30 | 54.03514 | -1.36131 | 10517 ft | 248 kts | 159° |
| 2026-05-06 16:30 | 54.01331 | -1.34848 | 11058 ft | 249 kts | 163° |
| 2026-05-06 16:30 | 53.99695 | -1.33972 | 11447 ft | 249 kts | 163° |
| 2026-05-06 16:31 | 53.98039 | -1.33053 | 11847 ft | 250 kts | 162° |
| 2026-05-06 16:31 | 53.96372 | -1.32116 | 12122 ft | 256 kts | 162° |
| 2026-05-06 16:31 | 53.94657 | -1.31158 | 12325 ft | 262 kts | 162° |
| 2026-05-06 16:31 | 53.92913 | -1.30187 | 12527 ft | 266 kts | 163° |
| 2026-05-06 16:32 | 53.91142 | -1.29202 | 12731 ft | 268 kts | 162° |
| 2026-05-06 16:32 | 53.89358 | -1.28211 | 12934 ft | 270 kts | 163° |
| 2026-05-06 16:32 | 53.87568 | -1.27217 | 13136 ft | 271 kts | 162° |
| 2026-05-06 16:32 | 53.85793 | -1.26231 | 13337 ft | 272 kts | 163° |
| 2026-05-06 16:33 | 53.83988 | -1.25231 | 13538 ft | 273 kts | 163° |
| 2026-05-06 16:33 | 53.82175 | -1.24228 | 13741 ft | 274 kts | 162° |
| 2026-05-06 16:33 | 53.80366 | -1.23225 | 13942 ft | 274 kts | 162° |
| 2026-05-06 16:34 | 53.76728 | -1.21215 | 14343 ft | 275 kts | 163° |
| 2026-05-06 16:34 | 53.74909 | -1.20212 | 14543 ft | 275 kts | 163° |
| 2026-05-06 16:34 | 53.73083 | -1.19204 | 14744 ft | 276 kts | 162° |
| 2026-05-06 16:34 | 53.71257 | -1.18198 | 14912 ft | 278 kts | 163° |
| 2026-05-06 16:35 | 53.69400 | -1.17175 | 14958 ft | 283 kts | 162° |
| 2026-05-06 16:35 | 53.67543 | -1.16151 | 14982 ft | 286 kts | 163° |
| 2026-05-06 16:35 | 53.65639 | -1.15107 | 14998 ft | 289 kts | 163° |
| 2026-05-06 16:35 | 53.63716 | -1.14051 | 14997 ft | 291 kts | 163° |
| 2026-05-06 16:36 | 53.61786 | -1.12993 | 15002 ft | 292 kts | 163° |
| 2026-05-06 16:36 | 53.59850 | -1.11934 | 15002 ft | 293 kts | 163° |
| 2026-05-06 16:36 | 53.57905 | -1.10869 | 15005 ft | 293 kts | 163° |
| 2026-05-06 16:36 | 53.55955 | -1.09804 | 15007 ft | 294 kts | 163° |
| 2026-05-06 16:37 | 53.54003 | -1.08737 | 15008 ft | 294 kts | 163° |
| 2026-05-06 16:37 | 53.52054 | -1.07675 | 15009 ft | 294 kts | 163° |
| 2026-05-06 16:37 | 53.50130 | -1.06624 | 15009 ft | 294 kts | 163° |
| 2026-05-06 16:37 | 53.48155 | -1.05550 | 15009 ft | 294 kts | 163° |
| 2026-05-06 16:38 | 53.46235 | -1.04506 | 14951 ft | 276 kts | 166° |
| 2026-05-06 16:38 | 53.45215 | -1.03982 | 14392 ft | 145 kts | 164° |
| 2026-05-06 16:38 | 53.44131 | -1.03369 | 13896 ft | 181 kts | 162° |
| 2026-05-06 16:38 | 53.42860 | -1.02667 | 13414 ft | 203 kts | 163° |
| 2026-05-06 16:39 | 53.41475 | -1.01918 | 12935 ft | 187 kts | 163° |
| 2026-05-06 16:39 | 53.40701 | -1.01483 | 12180 ft | 87 kts | 164° |
| 2026-05-06 16:39 | 53.40026 | -1.01140 | 10617 ft | 120 kts | 166° |
| 2026-05-06 16:39 | 53.39116 | -1.00710 | 9877 ft | 155 kts | 163° |
| 2026-05-06 16:40 | 53.38056 | -1.00075 | 9423 ft | 165 kts | 162° |
| 2026-05-06 16:40 | 53.37021 | -0.99566 | 8974 ft | 128 kts | 182° |
| 2026-05-06 16:40 | 53.36117 | -0.99072 | 8518 ft | 150 kts | 156° |
| 2026-05-06 16:40 | 53.35114 | -0.98413 | 8061 ft | 158 kts | 162° |
| 2026-05-06 16:41 | 53.34049 | -0.97852 | 7571 ft | 159 kts | 167° |
| 2026-05-06 16:41 | 53.32942 | -0.97239 | 6860 ft | 178 kts | 161° |
| 2026-05-06 16:41 | 53.31736 | -0.96490 | 6400 ft | 177 kts | 160° |
| 2026-05-06 16:41 | 53.30492 | -0.95681 | 5240 ft | 201 kts | 159° |
| 2026-05-06 16:42 | 53.29252 | -0.94816 | 4506 ft | 196 kts | 158° |
| 2026-05-06 16:42 | 53.27975 | -0.93849 | 3750 ft | 200 kts | 156° |
| 2026-05-06 16:42 | 53.26654 | -0.92773 | 2359 ft | 228 kts | 154° |
| 2026-05-06 16:42 | 53.25304 | -0.91521 | 2239 ft | 214 kts | 151° |
| 2026-05-06 16:43 | 53.24064 | -0.90176 | 2069 ft | 212 kts | 144° |
| 2026-05-06 16:43 | 53.22947 | -0.88729 | 2147 ft | 201 kts | 142° |
| 2026-05-06 16:43 | 53.21781 | -0.87079 | 1835 ft | 240 kts | 139° |
| 2026-05-06 16:43 | 53.20557 | -0.85059 | 1724 ft | 256 kts | 135° |
| 2026-05-06 16:44 | 53.19352 | -0.82900 | 2053 ft | 250 kts | 132° |
| 2026-05-06 16:44 | 53.18200 | -0.80674 | 2056 ft | 261 kts | 131° |
| 2026-05-06 16:44 | 53.17059 | -0.78420 | 1839 ft | 242 kts | 131° |
| 2026-05-06 16:44 | 53.16018 | -0.76317 | 1641 ft | 228 kts | 129° |
| 2026-05-06 16:45 | 53.15074 | -0.74243 | 1642 ft | 225 kts | 126° |
| 2026-05-06 16:45 | 53.14312 | -0.72075 | 2040 ft | 212 kts | 116° |
| 2026-05-06 16:45 | 53.13669 | -0.69769 | 1916 ft | 226 kts | 114° |
| 2026-05-06 16:45 | 53.13120 | -0.67474 | 2093 ft | 206 kts | 106° |
| 2026-05-06 16:46 | 53.12772 | -0.65238 | 2292 ft | 195 kts | 103° |
| 2026-05-06 16:46 | 53.12462 | -0.63012 | 2111 ft | 205 kts | 104° |
| 2026-05-06 16:46 | 53.12119 | -0.60691 | 2011 ft | 207 kts | 104° |
| 2026-05-06 16:46 | 53.11812 | -0.58332 | 1776 ft | 203 kts | 101° |
| 2026-05-06 16:47 | 53.11684 | -0.56281 | 1748 ft | 161 kts | 82° |
| 2026-05-06 16:47 | 53.12335 | -0.55029 | 1245 ft | 153 kts | 7° |
| 2026-05-06 16:47 | 53.13345 | -0.54566 | 812 ft | 149 kts | 19° |
| 2026-05-06 16:47 | 53.14264 | -0.53932 | 539 ft | 136 kts | 21° |
| 2026-05-06 16:48 | 53.15118 | -0.53375 | 317 ft | 129 kts | 20° |
| 2026-05-06 16:48 | 53.15918 | -0.52846 | 222 ft | 116 kts | 20° |
| 2026-05-06 16:48 | 53.16613 | -0.52389 | 224 ft | 99 kts | 21° |
| 2026-05-06 16:48 | 53.17175 | -0.52014 | 226 ft | 75 kts | 21° |
| 2026-05-06 16:49 | 53.17599 | -0.51734 | 223 ft | 48 kts | 23° |
| 2026-05-06 16:49 | 53.17739 | -0.51674 | 225 ft | 15 kts | 334° |
| 2026-05-06 16:49 | 53.17785 | -0.51808 | 226 ft | 16 kts | 290° |
| 2026-05-06 16:49 | 53.17800 | -0.51972 | 229 ft | 12 kts | 288° |
| 2026-05-06 16:50 | 53.17876 | -0.52149 | 233 ft | 18 kts | 311° |
| 2026-05-06 16:50 | 53.17949 | -0.52197 | 233 ft | 0 kts | 352° |
| 2026-05-06 16:50 | 53.17957 | -0.52199 | 235 ft | 3 kts | 330° |
| 2026-05-06 16:51 | 53.17951 | -0.52209 | 235 ft | 0 kts | 175° |
| 2026-05-06 16:51 | 53.17948 | -0.52209 | 235 ft | 0 kts | 174° |